sensor_id;sensor_type;location;lat;lon;timestamp;pressure;altitude;pressure_sealevel;temperature;humidity
40612;BME280;26317;44.894;20.286;2023-06-22T00:02:24;100965.75;;;27.87;66.96
40612;BME280;26317;44.894;20.286;2023-06-22T00:04:55;100960.59;;;27.85;67.04
40612;BME280;26317;44.894;20.286;2023-06-22T00:07:28;100948.31;;;27.76;67.54
40612;BME280;26317;44.894;20.286;2023-06-22T00:10:00;100955.44;;;27.80;67.86
40612;BME280;26317;44.894;20.286;2023-06-22T00:12:38;100955.38;;;27.77;67.61
40612;BME280;26317;44.894;20.286;2023-06-22T00:15:10;100950.63;;;27.74;67.65
40612;BME280;26317;44.894;20.286;2023-06-22T00:17:42;100944.72;;;27.72;68.11
40612;BME280;26317;44.894;20.286;2023-06-22T00:20:16;100937.94;;;27.66;68.08
40612;BME280;26317;44.894;20.286;2023-06-22T00:22:47;100945.78;;;27.64;68.31
40612;BME280;26317;44.894;20.286;2023-06-22T00:25:18;100948.09;;;27.58;68.54
40612;BME280;26317;44.894;20.286;2023-06-22T00:27:53;100951.97;;;27.54;68.27
40612;BME280;26317;44.894;20.286;2023-06-22T00:30:27;100934.06;;;27.40;68.37
40612;BME280;26317;44.894;20.286;2023-06-22T00:32:58;100940.06;;;27.46;68.59
40612;BME280;26317;44.894;20.286;2023-06-22T00:35:32;100917.03;;;27.31;69.07
40612;BME280;26317;44.894;20.286;2023-06-22T00:38:04;100937.53;;;27.34;69.75
40612;BME280;26317;44.894;20.286;2023-06-22T00:40:36;100933.94;;;27.30;69.26
40612;BME280;26317;44.894;20.286;2023-06-22T00:43:12;100926.00;;;27.25;69.52
40612;BME280;26317;44.894;20.286;2023-06-22T00:45:46;100920.84;;;27.23;69.86
40612;BME280;26317;44.894;20.286;2023-06-22T00:48:21;100907.84;;;27.20;69.64
40612;BME280;26317;44.894;20.286;2023-06-22T00:50:54;100909.75;;;27.16;69.57
40612;BME280;26317;44.894;20.286;2023-06-22T00:53:37;100908.16;;;27.15;70.00
40612;BME280;26317;44.894;20.286;2023-06-22T00:56:10;100908.91;;;27.12;70.39
40612;BME280;26317;44.894;20.286;2023-06-22T00:58:47;100912.78;;;27.08;71.11
40612;BME280;26317;44.894;20.286;2023-06-22T01:01:23;100915.50;;;27.04;70.96
40612;BME280;26317;44.894;20.286;2023-06-22T01:03:57;100918.97;;;27.01;70.79
40612;BME280;26317;44.894;20.286;2023-06-22T01:06:33;100921.31;;;26.99;70.68
40612;BME280;26317;44.894;20.286;2023-06-22T01:09:14;100929.13;;;26.97;70.45
40612;BME280;26317;44.894;20.286;2023-06-22T01:11:50;100929.13;;;26.97;71.23
40612;BME280;26317;44.894;20.286;2023-06-22T01:14:31;100931.50;;;26.95;71.85
40612;BME280;26317;44.894;20.286;2023-06-22T01:17:07;100924.38;;;26.94;71.86
40612;BME280;26317;44.894;20.286;2023-06-22T01:19:45;100927.44;;;26.89;72.04
40612;BME280;26317;44.894;20.286;2023-06-22T01:22:21;100922.34;;;26.87;72.51
40612;BME280;26317;44.894;20.286;2023-06-22T01:25:00;100924.56;;;26.82;73.10
40612;BME280;26317;44.894;20.286;2023-06-22T01:27:43;100920.19;;;26.77;73.02
40612;BME280;26317;44.894;20.286;2023-06-22T01:30:33;100917.81;;;26.76;72.90
40612;BME280;26317;44.894;20.286;2023-06-22T01:33:12;100888.41;;;26.57;73.62
40612;BME280;26317;44.894;20.286;2023-06-22T01:35:44;100900.75;;;26.67;73.50
40612;BME280;26317;44.894;20.286;2023-06-22T01:38:28;100899.53;;;26.64;73.62
40612;BME280;26317;44.894;20.286;2023-06-22T01:41:00;100904.97;;;26.61;74.08
40612;BME280;26317;44.894;20.286;2023-06-22T01:43:32;100901.69;;;26.51;74.57
40612;BME280;26317;44.894;20.286;2023-06-22T01:46:05;100900.00;;;26.43;74.57
40612;BME280;26317;44.894;20.286;2023-06-22T01:48:38;100904.94;;;26.34;75.06
40612;BME280;26317;44.894;20.286;2023-06-22T01:51:11;100910.72;;;26.26;75.06
40612;BME280;26317;44.894;20.286;2023-06-22T01:53:45;100901.50;;;26.18;74.97
40612;BME280;26317;44.894;20.286;2023-06-22T01:56:22;100880.44;;;26.03;74.72
40612;BME280;26317;44.894;20.286;2023-06-22T01:59:04;100905.44;;;26.17;75.30
40612;BME280;26317;44.894;20.286;2023-06-22T02:01:43;100903.00;;;26.12;75.81
40612;BME280;26317;44.894;20.286;2023-06-22T02:04:20;100904.88;;;26.08;75.76
40612;BME280;26317;44.894;20.286;2023-06-22T02:06:56;100897.72;;;26.03;76.13
40612;BME280;26317;44.894;20.286;2023-06-22T02:09:31;100899.25;;;26.01;76.06
40612;BME280;26317;44.894;20.286;2023-06-22T02:12:05;100895.56;;;25.93;76.50
40612;BME280;26317;44.894;20.286;2023-06-22T02:14:37;100912.88;;;25.94;76.07
40612;BME280;26317;44.894;20.286;2023-06-22T02:17:14;100910.00;;;25.87;76.40
40612;BME280;26317;44.894;20.286;2023-06-22T02:19:45;100905.53;;;25.79;75.55
40612;BME280;26317;44.894;20.286;2023-06-22T02:22:17;100908.84;;;25.69;75.33
40612;BME280;26317;44.894;20.286;2023-06-22T02:24:51;100921.00;;;25.68;75.28
40612;BME280;26317;44.894;20.286;2023-06-22T02:27:21;100920.94;;;25.64;75.83
40612;BME280;26317;44.894;20.286;2023-06-22T02:29:51;100924.75;;;25.59;76.11
40612;BME280;26317;44.894;20.286;2023-06-22T02:32:24;100925.50;;;25.56;75.12
40612;BME280;26317;44.894;20.286;2023-06-22T02:34:54;100917.25;;;25.56;75.39
40612;BME280;26317;44.894;20.286;2023-06-22T02:37:25;100923.53;;;25.57;74.82
40612;BME280;26317;44.894;20.286;2023-06-22T02:39:57;100914.75;;;25.51;74.65
40612;BME280;26317;44.894;20.286;2023-06-22T02:42:28;100916.47;;;25.56;74.59
40612;BME280;26317;44.894;20.286;2023-06-22T02:44:59;100922.75;;;25.56;74.77
40612;BME280;26317;44.894;20.286;2023-06-22T02:47:39;100918.84;;;25.57;74.59
40612;BME280;26317;44.894;20.286;2023-06-22T02:50:14;100918.13;;;25.60;75.13
40612;BME280;26317;44.894;20.286;2023-06-22T02:52:56;100932.31;;;25.62;75.07
40612;BME280;26317;44.894;20.286;2023-06-22T02:55:37;100963.41;;;25.51;75.64
40612;BME280;26317;44.894;20.286;2023-06-22T02:58:09;100962.47;;;25.43;76.44
40612;BME280;26317;44.894;20.286;2023-06-22T03:00:43;100957.97;;;25.35;78.66
40612;BME280;26317;44.894;20.286;2023-06-22T03:03:21;100963.59;;;25.23;79.32
40612;BME280;26317;44.894;20.286;2023-06-22T03:05:56;100962.84;;;25.07;80.31
40612;BME280;26317;44.894;20.286;2023-06-22T03:08:28;100963.72;;;25.11;81.14
40612;BME280;26317;44.894;20.286;2023-06-22T03:10:58;100959.19;;;25.18;81.35
40612;BME280;26317;44.894;20.286;2023-06-22T03:13:31;100956.31;;;25.11;81.96
40612;BME280;26317;44.894;20.286;2023-06-22T03:16:01;100946.25;;;25.19;82.09
40612;BME280;26317;44.894;20.286;2023-06-22T03:18:34;100953.88;;;25.26;81.75
40612;BME280;26317;44.894;20.286;2023-06-22T03:21:05;100949.59;;;25.28;81.55
40612;BME280;26317;44.894;20.286;2023-06-22T03:23:36;100960.72;;;25.35;81.70
40612;BME280;26317;44.894;20.286;2023-06-22T03:26:08;100948.31;;;25.41;81.30
40612;BME280;26317;44.894;20.286;2023-06-22T03:28:39;100957.16;;;25.50;81.14
40612;BME280;26317;44.894;20.286;2023-06-22T03:31:09;100966.16;;;25.51;80.48
40612;BME280;26317;44.894;20.286;2023-06-22T03:33:44;100965.91;;;25.56;80.26
40612;BME280;26317;44.894;20.286;2023-06-22T03:36:16;100959.50;;;25.52;79.46
40612;BME280;26317;44.894;20.286;2023-06-22T03:38:48;100968.72;;;25.59;78.37
40612;BME280;26317;44.894;20.286;2023-06-22T03:41:18;100969.91;;;25.58;76.13
40612;BME280;26317;44.894;20.286;2023-06-22T03:43:49;100971.06;;;25.57;75.80
40612;BME280;26317;44.894;20.286;2023-06-22T03:46:20;100976.56;;;25.57;74.48
40612;BME280;26317;44.894;20.286;2023-06-22T03:49:00;100974.53;;;25.54;74.21
40612;BME280;26317;44.894;20.286;2023-06-22T03:51:37;100972.34;;;25.63;73.09
40612;BME280;26317;44.894;20.286;2023-06-22T03:54:12;100984.84;;;25.61;72.89
40612;BME280;26317;44.894;20.286;2023-06-22T03:56:49;100985.00;;;25.68;72.60
40612;BME280;26317;44.894;20.286;2023-06-22T03:59:22;100977.94;;;25.67;72.02
40612;BME280;26317;44.894;20.286;2023-06-22T04:01:52;100983.50;;;25.71;72.21
40612;BME280;26317;44.894;20.286;2023-06-22T04:04:25;100983.50;;;25.71;71.74
40612;BME280;26317;44.894;20.286;2023-06-22T04:06:56;100977.28;;;25.74;71.67
40612;BME280;26317;44.894;20.286;2023-06-22T04:09:27;100973.44;;;25.78;71.68
40612;BME280;26317;44.894;20.286;2023-06-22T04:11:57;100976.53;;;25.77;71.49
40612;BME280;26317;44.894;20.286;2023-06-22T04:14:31;100974.97;;;25.76;71.67
40612;BME280;26317;44.894;20.286;2023-06-22T04:17:02;100974.06;;;25.72;72.08
40612;BME280;26317;44.894;20.286;2023-06-22T04:19:35;100976.41;;;25.70;71.98
40612;BME280;26317;44.894;20.286;2023-06-22T04:22:06;100976.13;;;25.75;71.59
40612;BME280;26317;44.894;20.286;2023-06-22T04:24:37;100977.34;;;25.77;71.83
40612;BME280;26317;44.894;20.286;2023-06-22T04:27:07;100980.94;;;25.81;71.86
40612;BME280;26317;44.894;20.286;2023-06-22T04:29:39;100979.06;;;25.85;72.00
40612;BME280;26317;44.894;20.286;2023-06-22T04:32:16;100985.50;;;25.93;71.68
40612;BME280;26317;44.894;20.286;2023-06-22T04:34:49;100986.34;;;25.97;71.65
40612;BME280;26317;44.894;20.286;2023-06-22T04:37:19;100981.72;;;26.01;70.90
40612;BME280;26317;44.894;20.286;2023-06-22T04:39:50;100981.88;;;26.08;70.89
40612;BME280;26317;44.894;20.286;2023-06-22T04:42:21;100959.72;;;26.01;70.89
40612;BME280;26317;44.894;20.286;2023-06-22T04:44:52;100978.09;;;26.16;70.28
40612;BME280;26317;44.894;20.286;2023-06-22T04:47:22;100973.34;;;26.13;69.84
40612;BME280;26317;44.894;20.286;2023-06-22T04:49:59;100979.84;;;26.24;70.21
40612;BME280;26317;44.894;20.286;2023-06-22T04:52:34;100985.47;;;26.31;69.86
40612;BME280;26317;44.894;20.286;2023-06-22T04:55:08;100982.41;;;26.36;70.03
40612;BME280;26317;44.894;20.286;2023-06-22T04:57:54;100987.63;;;26.41;69.78
40612;BME280;26317;44.894;20.286;2023-06-22T05:00:31;100981.72;;;26.43;69.54
40612;BME280;26317;44.894;20.286;2023-06-22T05:03:03;100981.38;;;26.44;69.42
40612;BME280;26317;44.894;20.286;2023-06-22T05:05:49;100986.13;;;26.47;69.70
40612;BME280;26317;44.894;20.286;2023-06-22T05:08:21;100988.59;;;26.52;70.16
40612;BME280;26317;44.894;20.286;2023-06-22T05:10:56;100980.34;;;26.52;70.63
40612;BME280;26317;44.894;20.286;2023-06-22T05:13:32;100993.03;;;26.61;70.79
40612;BME280;26317;44.894;20.286;2023-06-22T05:16:02;100999.41;;;26.65;71.53
40612;BME280;26317;44.894;20.286;2023-06-22T05:18:33;101000.25;;;26.69;70.89
40612;BME280;26317;44.894;20.286;2023-06-22T05:21:06;101010.09;;;26.70;70.84
40612;BME280;26317;44.894;20.286;2023-06-22T05:23:41;101001.56;;;26.75;71.07
40612;BME280;26317;44.894;20.286;2023-06-22T05:26:16;100995.75;;;26.80;69.73
40612;BME280;26317;44.894;20.286;2023-06-22T05:28:46;101008.59;;;26.95;68.67
40612;BME280;26317;44.894;20.286;2023-06-22T05:31:20;100992.06;;;26.95;67.70
40612;BME280;26317;44.894;20.286;2023-06-22T05:33:52;101012.81;;;27.15;66.57
40612;BME280;26317;44.894;20.286;2023-06-22T05:36:25;100993.84;;;27.10;66.27
40612;BME280;26317;44.894;20.286;2023-06-22T05:38:56;101001.22;;;27.29;66.42
40612;BME280;26317;44.894;20.286;2023-06-22T05:41:27;101008.41;;;27.37;65.58
40612;BME280;26317;44.894;20.286;2023-06-22T05:43:57;101004.59;;;27.45;65.70
40612;BME280;26317;44.894;20.286;2023-06-22T05:46:27;101003.19;;;27.55;65.85
40612;BME280;26317;44.894;20.286;2023-06-22T05:48:58;100997.75;;;27.62;66.23
40612;BME280;26317;44.894;20.286;2023-06-22T05:51:31;100999.47;;;27.73;65.69
40612;BME280;26317;44.894;20.286;2023-06-22T05:54:03;100993.28;;;27.83;66.02
40612;BME280;26317;44.894;20.286;2023-06-22T05:56:37;100998.09;;;27.90;65.73
40612;BME280;26317;44.894;20.286;2023-06-22T05:59:11;101001.78;;;28.01;65.25
40612;BME280;26317;44.894;20.286;2023-06-22T06:01:43;101004.59;;;28.08;65.52
40612;BME280;26317;44.894;20.286;2023-06-22T06:04:18;100993.09;;;28.03;64.74
40612;BME280;26317;44.894;20.286;2023-06-22T06:06:52;100999.56;;;28.14;65.26
40612;BME280;26317;44.894;20.286;2023-06-22T06:09:23;100994.16;;;28.24;64.71
40612;BME280;26317;44.894;20.286;2023-06-22T06:11:53;100997.75;;;28.28;63.14
40612;BME280;26317;44.894;20.286;2023-06-22T06:14:24;100981.19;;;28.28;62.97
40612;BME280;26317;44.894;20.286;2023-06-22T06:16:55;100953.13;;;28.19;62.11
40612;BME280;26317;44.894;20.286;2023-06-22T06:19:25;100976.56;;;28.40;61.49
40612;BME280;26317;44.894;20.286;2023-06-22T06:22:00;100978.28;;;28.55;61.49
40612;BME280;26317;44.894;20.286;2023-06-22T06:24:34;100983.84;;;28.62;60.46
40612;BME280;26317;44.894;20.286;2023-06-22T06:27:04;100981.97;;;28.69;60.02
40612;BME280;26317;44.894;20.286;2023-06-22T06:29:35;100985.56;;;28.77;60.12
40612;BME280;26317;44.894;20.286;2023-06-22T06:32:06;100978.56;;;28.87;60.14
40612;BME280;26317;44.894;20.286;2023-06-22T06:34:37;100984.91;;;28.94;59.32
40612;BME280;26317;44.894;20.286;2023-06-22T06:37:14;100984.97;;;29.01;58.73
40612;BME280;26317;44.894;20.286;2023-06-22T06:39:51;100988.56;;;29.09;58.71
40612;BME280;26317;44.894;20.286;2023-06-22T06:42:29;100986.63;;;29.16;58.24
40612;BME280;26317;44.894;20.286;2023-06-22T06:45:15;100980.44;;;29.30;55.95
40612;BME280;26317;44.894;20.286;2023-06-22T06:47:46;100970.22;;;29.41;53.96
40612;BME280;26317;44.894;20.286;2023-06-22T06:50:17;100981.72;;;29.47;53.94
40612;BME280;26317;44.894;20.286;2023-06-22T06:52:50;100983.69;;;29.53;51.77
40612;BME280;26317;44.894;20.286;2023-06-22T06:55:21;100975.03;;;29.55;50.90
40612;BME280;26317;44.894;20.286;2023-06-22T06:57:52;100972.69;;;29.64;51.98
40612;BME280;26317;44.894;20.286;2023-06-22T07:00:22;100979.81;;;29.68;51.66
40612;BME280;26317;44.894;20.286;2023-06-22T07:02:53;100965.16;;;29.61;51.54
40612;BME280;26317;44.894;20.286;2023-06-22T07:05:24;100980.22;;;29.78;49.65
40612;BME280;26317;44.894;20.286;2023-06-22T07:07:57;100985.41;;;29.86;49.41
40612;BME280;26317;44.894;20.286;2023-06-22T07:10:28;100980.69;;;29.94;51.15
40612;BME280;26317;44.894;20.286;2023-06-22T07:12:59;100985.47;;;30.00;50.45
40612;BME280;26317;44.894;20.286;2023-06-22T07:15:29;100985.50;;;30.07;50.94
40612;BME280;26317;44.894;20.286;2023-06-22T07:17:59;100993.03;;;30.18;50.32
40612;BME280;26317;44.894;20.286;2023-06-22T07:20:30;100986.72;;;30.28;49.91
40612;BME280;26317;44.894;20.286;2023-06-22T07:23:03;100983.56;;;30.36;51.79
40612;BME280;26317;44.894;20.286;2023-06-22T07:25:33;100979.59;;;30.41;51.07
40612;BME280;26317;44.894;20.286;2023-06-22T07:28:06;100985.59;;;30.46;49.59
40612;BME280;26317;44.894;20.286;2023-06-22T07:30:36;100982.41;;;30.48;48.51
40612;BME280;26317;44.894;20.286;2023-06-22T07:33:07;100984.38;;;30.58;50.96
40612;BME280;26317;44.894;20.286;2023-06-22T07:35:38;100987.94;;;30.62;50.73
40612;BME280;26317;44.894;20.286;2023-06-22T07:38:10;100981.59;;;30.65;50.09
40612;BME280;26317;44.894;20.286;2023-06-22T07:40:41;100991.50;;;30.73;49.18
40612;BME280;26317;44.894;20.286;2023-06-22T07:43:12;100994.28;;;30.84;48.80
40612;BME280;26317;44.894;20.286;2023-06-22T07:45:48;100989.09;;;30.89;49.26
40612;BME280;26317;44.894;20.286;2023-06-22T07:48:20;100972.50;;;30.86;48.16
40612;BME280;26317;44.894;20.286;2023-06-22T07:50:51;100981.59;;;31.04;48.40
40612;BME280;26317;44.894;20.286;2023-06-22T07:53:24;100978.84;;;31.00;46.97
40612;BME280;26317;44.894;20.286;2023-06-22T07:55:55;100980.78;;;31.11;46.82
40612;BME280;26317;44.894;20.286;2023-06-22T07:58:25;100979.59;;;31.15;45.73
40612;BME280;26317;44.894;20.286;2023-06-22T08:00:56;100983.94;;;31.23;45.18
40612;BME280;26317;44.894;20.286;2023-06-22T08:03:26;100958.63;;;31.14;46.30
40612;BME280;26317;44.894;20.286;2023-06-22T08:05:57;100993.41;;;31.33;47.92
40612;BME280;26317;44.894;20.286;2023-06-22T08:08:30;100993.81;;;31.31;45.64
40612;BME280;26317;44.894;20.286;2023-06-22T08:11:00;101004.50;;;31.36;45.91
40612;BME280;26317;44.894;20.286;2023-06-22T08:13:31;100989.84;;;31.39;45.84
40612;BME280;26317;44.894;20.286;2023-06-22T08:16:01;100998.50;;;31.48;46.60
40612;BME280;26317;44.894;20.286;2023-06-22T08:18:32;100998.53;;;31.45;45.77
40612;BME280;26317;44.894;20.286;2023-06-22T08:21:02;100994.94;;;31.48;46.56
40612;BME280;26317;44.894;20.286;2023-06-22T08:23:35;100995.75;;;31.59;45.48
40612;BME280;26317;44.894;20.286;2023-06-22T08:26:05;100999.28;;;31.63;46.56
40612;BME280;26317;44.894;20.286;2023-06-22T08:28:35;100993.31;;;31.68;45.49
40612;BME280;26317;44.894;20.286;2023-06-22T08:31:05;100979.84;;;31.67;44.22
40612;BME280;26317;44.894;20.286;2023-06-22T08:33:36;100988.47;;;31.83;45.18
40612;BME280;26317;44.894;20.286;2023-06-22T08:36:15;100994.06;;;31.79;45.72
40612;BME280;26317;44.894;20.286;2023-06-22T08:38:48;100985.72;;;31.83;44.33
40612;BME280;26317;44.894;20.286;2023-06-22T08:41:19;100992.81;;;31.87;46.70
40612;BME280;26317;44.894;20.286;2023-06-22T08:43:49;100972.56;;;31.90;47.67
40612;BME280;26317;44.894;20.286;2023-06-22T08:46:20;100993.09;;;32.11;45.21
40612;BME280;26317;44.894;20.286;2023-06-22T08:48:57;100991.47;;;32.20;44.55
40612;BME280;26317;44.894;20.286;2023-06-22T08:51:28;100985.06;;;32.30;45.06
40612;BME280;26317;44.894;20.286;2023-06-22T08:54:01;100996.50;;;32.39;44.22
40612;BME280;26317;44.894;20.286;2023-06-22T08:56:32;100982.16;;;32.45;43.81
40612;BME280;26317;44.894;20.286;2023-06-22T08:59:02;100982.84;;;32.63;45.48
40612;BME280;26317;44.894;20.286;2023-06-22T09:01:34;100971.63;;;32.73;44.05
40612;BME280;26317;44.894;20.286;2023-06-22T09:04:05;100975.16;;;32.77;42.91
40612;BME280;26317;44.894;20.286;2023-06-22T09:06:37;100971.19;;;32.78;42.78
40612;BME280;26317;44.894;20.286;2023-06-22T09:09:15;100972.69;;;32.87;42.44
40612;BME280;26317;44.894;20.286;2023-06-22T09:11:47;100971.38;;;32.98;42.30
40612;BME280;26317;44.894;20.286;2023-06-22T09:14:17;100961.78;;;33.03;43.84
40612;BME280;26317;44.894;20.286;2023-06-22T09:16:48;100966.13;;;33.07;41.81
40612;BME280;26317;44.894;20.286;2023-06-22T09:19:18;100965.66;;;33.12;42.46
40612;BME280;26317;44.894;20.286;2023-06-22T09:21:48;100971.34;;;33.02;41.64
40612;BME280;26317;44.894;20.286;2023-06-22T09:24:21;100960.63;;;33.00;44.73
40612;BME280;26317;44.894;20.286;2023-06-22T09:26:52;100972.41;;;33.18;44.67
40612;BME280;26317;44.894;20.286;2023-06-22T09:29:22;100966.00;;;33.21;45.47
40612;BME280;26317;44.894;20.286;2023-06-22T09:31:53;100974.16;;;33.39;43.70
40612;BME280;26317;44.894;20.286;2023-06-22T09:34:23;100960.97;;;33.43;42.50
40612;BME280;26317;44.894;20.286;2023-06-22T09:36:53;100971.63;;;33.48;41.37
40612;BME280;26317;44.894;20.286;2023-06-22T09:39:27;100978.31;;;33.54;41.65
40612;BME280;26317;44.894;20.286;2023-06-22T09:41:58;100977.53;;;33.54;41.42
40612;BME280;26317;44.894;20.286;2023-06-22T09:44:29;100978.22;;;33.61;41.82
40612;BME280;26317;44.894;20.286;2023-06-22T09:46:59;100968.72;;;33.59;39.96
40612;BME280;26317;44.894;20.286;2023-06-22T09:49:30;100982.97;;;33.64;41.13
40612;BME280;26317;44.894;20.286;2023-06-22T09:52:14;100982.16;;;33.67;40.90
40612;BME280;26317;44.894;20.286;2023-06-22T09:54:47;100982.50;;;33.73;40.53
40612;BME280;26317;44.894;20.286;2023-06-22T09:57:17;100979.13;;;33.85;40.59
40612;BME280;26317;44.894;20.286;2023-06-22T09:59:48;100975.56;;;33.85;39.96
40612;BME280;26317;44.894;20.286;2023-06-22T10:02:18;100975.56;;;33.85;40.71
40612;BME280;26317;44.894;20.286;2023-06-22T10:04:49;100975.50;;;33.88;39.02
40612;BME280;26317;44.894;20.286;2023-06-22T10:07:20;100975.84;;;33.94;39.73
40612;BME280;26317;44.894;20.286;2023-06-22T10:09:53;100975.72;;;34.01;39.22
40612;BME280;26317;44.894;20.286;2023-06-22T10:12:23;100975.31;;;34.02;40.65
40612;BME280;26317;44.894;20.286;2023-06-22T10:14:54;100978.41;;;34.08;40.04
40612;BME280;26317;44.894;20.286;2023-06-22T10:17:25;100975.91;;;34.17;40.53
40612;BME280;26317;44.894;20.286;2023-06-22T10:19:58;100980.88;;;34.29;40.69
40612;BME280;26317;44.894;20.286;2023-06-22T10:22:33;100960.50;;;34.36;39.18
40612;BME280;26317;44.894;20.286;2023-06-22T10:25:07;100971.47;;;34.46;40.21
40612;BME280;26317;44.894;20.286;2023-06-22T10:27:38;100962.31;;;34.46;38.23
40612;BME280;26317;44.894;20.286;2023-06-22T10:30:11;100968.06;;;34.58;39.95
40612;BME280;26317;44.894;20.286;2023-06-22T10:32:43;100963.22;;;34.62;37.19
40612;BME280;26317;44.894;20.286;2023-06-22T10:35:14;100968.69;;;34.70;37.94
40612;BME280;26317;44.894;20.286;2023-06-22T10:37:45;100959.13;;;34.71;39.01
40612;BME280;26317;44.894;20.286;2023-06-22T10:40:19;100951.97;;;34.70;38.79
40612;BME280;26317;44.894;20.286;2023-06-22T10:42:49;100951.00;;;34.80;37.02
40612;BME280;26317;44.894;20.286;2023-06-22T10:45:19;100956.03;;;34.88;37.20
40612;BME280;26317;44.894;20.286;2023-06-22T10:47:50;100955.47;;;34.97;35.48
40612;BME280;26317;44.894;20.286;2023-06-22T10:50:20;100954.03;;;35.08;37.14
40612;BME280;26317;44.894;20.286;2023-06-22T10:52:53;100938.47;;;35.11;33.96
40612;BME280;26317;44.894;20.286;2023-06-22T10:55:29;100953.72;;;35.26;32.92
40612;BME280;26317;44.894;20.286;2023-06-22T10:58:19;100959.84;;;35.37;33.47
40612;BME280;26317;44.894;20.286;2023-06-22T11:00:49;100956.06;;;35.47;31.79
40612;BME280;26317;44.894;20.286;2023-06-22T11:03:20;100952.78;;;35.52;32.08
40612;BME280;26317;44.894;20.286;2023-06-22T11:05:50;100948.56;;;35.64;31.33
40612;BME280;26317;44.894;20.286;2023-06-22T11:08:21;100954.84;;;35.68;30.73
40612;BME280;26317;44.894;20.286;2023-06-22T11:10:54;100940.81;;;35.72;30.39
40612;BME280;26317;44.894;20.286;2023-06-22T11:13:24;100935.44;;;35.81;30.01
40612;BME280;26317;44.894;20.286;2023-06-22T11:15:55;100919.53;;;35.78;29.66
40612;BME280;26317;44.894;20.286;2023-06-22T11:18:25;100929.50;;;35.95;29.92
40612;BME280;26317;44.894;20.286;2023-06-22T11:20:55;100928.97;;;36.00;31.26
40612;BME280;26317;44.894;20.286;2023-06-22T11:23:26;100930.38;;;36.08;30.99
40612;BME280;26317;44.894;20.286;2023-06-22T11:25:59;100922.63;;;36.16;31.49
40612;BME280;26317;44.894;20.286;2023-06-22T11:28:32;100920.09;;;36.21;30.75
40612;BME280;26317;44.894;20.286;2023-06-22T11:31:03;100916.09;;;36.22;29.99
40612;BME280;26317;44.894;20.286;2023-06-22T11:33:51;100915.13;;;36.29;30.34
40612;BME280;26317;44.894;20.286;2023-06-22T11:36:21;100919.41;;;36.33;30.45
40612;BME280;26317;44.894;20.286;2023-06-22T11:38:51;100913.28;;;36.38;31.65
40612;BME280;26317;44.894;20.286;2023-06-22T11:41:24;100907.50;;;36.46;30.53
40612;BME280;26317;44.894;20.286;2023-06-22T11:43:54;100916.00;;;36.58;32.22
40612;BME280;26317;44.894;20.286;2023-06-22T11:46:26;100902.75;;;36.75;32.34
40612;BME280;26317;44.894;20.286;2023-06-22T11:48:56;100895.22;;;36.88;32.86
40612;BME280;26317;44.894;20.286;2023-06-22T11:51:27;100875.31;;;36.86;32.08
40612;BME280;26317;44.894;20.286;2023-06-22T11:54:09;100893.06;;;37.08;29.84
40612;BME280;26317;44.894;20.286;2023-06-22T11:56:45;100894.88;;;37.15;30.89
40612;BME280;26317;44.894;20.286;2023-06-22T11:59:16;100884.56;;;37.24;31.38
40612;BME280;26317;44.894;20.286;2023-06-22T12:01:49;100892.44;;;37.29;31.52
40612;BME280;26317;44.894;20.286;2023-06-22T12:04:21;100893.78;;;37.38;30.86
40612;BME280;26317;44.894;20.286;2023-06-22T12:06:51;100881.59;;;37.31;29.13
40612;BME280;26317;44.894;20.286;2023-06-22T12:09:28;100887.63;;;37.43;30.66
40612;BME280;26317;44.894;20.286;2023-06-22T12:12:00;100873.09;;;37.48;32.12
40612;BME280;26317;44.894;20.286;2023-06-22T12:14:33;100888.91;;;37.54;31.48
40612;BME280;26317;44.894;20.286;2023-06-22T12:17:04;100876.81;;;37.57;32.04
40612;BME280;26317;44.894;20.286;2023-06-22T12:19:37;100873.69;;;37.68;32.15
40612;BME280;26317;44.894;20.286;2023-06-22T12:22:08;100839.41;;;37.64;30.95
40612;BME280;26317;44.894;20.286;2023-06-22T12:24:37;100865.69;;;37.92;29.95
40612;BME280;26317;44.894;20.286;2023-06-22T12:27:10;100866.97;;;38.03;29.99
40612;BME280;26317;44.894;20.286;2023-06-22T12:29:44;100841.38;;;38.14;30.26
40612;BME280;26317;44.894;20.286;2023-06-22T12:32:15;100841.97;;;38.31;29.04
40612;BME280;26317;44.894;20.286;2023-06-22T12:34:45;100852.63;;;38.36;29.73
40612;BME280;26317;44.894;20.286;2023-06-22T12:37:16;100852.84;;;38.41;31.32
40612;BME280;26317;44.894;20.286;2023-06-22T12:39:46;100845.78;;;38.37;32.37
40612;BME280;26317;44.894;20.286;2023-06-22T12:42:19;100845.78;;;38.37;32.34
40612;BME280;26317;44.894;20.286;2023-06-22T12:44:49;100841.78;;;38.25;32.38
40612;BME280;26317;44.894;20.286;2023-06-22T12:47:21;100841.59;;;38.19;32.03
40612;BME280;26317;44.894;20.286;2023-06-22T12:49:52;100846.06;;;38.17;29.19
40612;BME280;26317;44.894;20.286;2023-06-22T12:52:23;100841.63;;;38.29;30.07
40612;BME280;26317;44.894;20.286;2023-06-22T12:54:53;100837.03;;;38.35;32.53
40612;BME280;26317;44.894;20.286;2023-06-22T12:57:27;100840.84;;;38.41;33.96
40612;BME280;26317;44.894;20.286;2023-06-22T12:59:57;100830.84;;;38.40;35.17
40612;BME280;26317;44.894;20.286;2023-06-22T13:02:28;100814.59;;;38.35;34.64
40612;BME280;26317;44.894;20.286;2023-06-22T13:04:58;100831.19;;;38.42;34.49
40612;BME280;26317;44.894;20.286;2023-06-22T13:07:29;100827.94;;;38.43;34.83
40612;BME280;26317;44.894;20.286;2023-06-22T13:09:59;100825.59;;;38.42;34.60